Terminal Aerodrome Forecast
Issued by NWS Amarillo, TX

Home | Current Version | Previous Version | Text Only | Print | Product List | Glossary On
Versions: 1 2 3 4 5 6 7 8 9 10 11 12 13 14 15 16 17 18 19 20 21
000
FTUS44 KAMA 010520
TAFDHT
TAF
KDHT 010520Z 0106/0206 08008KT P6SM SCT040 BKN300
     FM010800 04008KT P6SM OVC015
      TEMPO 0108/0112 -SHRA
     FM011800 06011KT P6SM OVC040
     FM020000 12009KT P6SM BKN040=

USA.gov is the U.S. government's official web portal to all federal, state and local government web resources and services.